sensor_id;sensor_type;location;lat;lon;timestamp;P1;durP1;ratioP1;P2;durP2;ratioP2
31438;SDS011;18062;48.872;9.220;2023-07-28T00:01:45;4.60;;;3.97;;
31438;SDS011;18062;48.872;9.220;2023-07-28T00:04:11;5.47;;;3.73;;
31438;SDS011;18062;48.872;9.220;2023-07-28T00:06:37;4.10;;;3.47;;
31438;SDS011;18062;48.872;9.220;2023-07-28T00:09:03;4.07;;;3.47;;
31438;SDS011;18062;48.872;9.220;2023-07-28T00:11:29;4.90;;;3.77;;
31438;SDS011;18062;48.872;9.220;2023-07-28T00:13:55;4.07;;;3.47;;
31438;SDS011;18062;48.872;9.220;2023-07-28T00:16:21;4.67;;;3.47;;
31438;SDS011;18062;48.872;9.220;2023-07-28T00:18:47;4.33;;;3.63;;
31438;SDS011;18062;48.872;9.220;2023-07-28T00:21:13;6.23;;;3.47;;
31438;SDS011;18062;48.872;9.220;2023-07-28T00:23:39;5.30;;;4.00;;
31438;SDS011;18062;48.872;9.220;2023-07-28T00:26:06;5.23;;;3.90;;
31438;SDS011;18062;48.872;9.220;2023-07-28T00:28:32;4.40;;;4.00;;
31438;SDS011;18062;48.872;9.220;2023-07-28T00:30:58;4.50;;;3.63;;
31438;SDS011;18062;48.872;9.220;2023-07-28T00:33:24;4.30;;;3.60;;
31438;SDS011;18062;48.872;9.220;2023-07-28T00:35:50;4.57;;;3.30;;
31438;SDS011;18062;48.872;9.220;2023-07-28T00:38:16;4.33;;;3.70;;
31438;SDS011;18062;48.872;9.220;2023-07-28T00:40:42;5.37;;;3.87;;
31438;SDS011;18062;48.872;9.220;2023-07-28T00:43:08;3.87;;;3.47;;
31438;SDS011;18062;48.872;9.220;2023-07-28T00:45:35;6.63;;;3.33;;
31438;SDS011;18062;48.872;9.220;2023-07-28T00:48:01;4.23;;;3.40;;
31438;SDS011;18062;48.872;9.220;2023-07-28T00:50:27;3.93;;;3.20;;
31438;SDS011;18062;48.872;9.220;2023-07-28T00:52:54;3.40;;;2.97;;
31438;SDS011;18062;48.872;9.220;2023-07-28T00:55:20;4.57;;;3.73;;
31438;SDS011;18062;48.872;9.220;2023-07-28T00:57:46;3.33;;;2.73;;
31438;SDS011;18062;48.872;9.220;2023-07-28T01:00:12;3.93;;;3.00;;
31438;SDS011;18062;48.872;9.220;2023-07-28T01:02:38;4.23;;;3.03;;
31438;SDS011;18062;48.872;9.220;2023-07-28T01:05:05;3.50;;;2.90;;
31438;SDS011;18062;48.872;9.220;2023-07-28T01:07:36;3.37;;;2.97;;
31438;SDS011;18062;48.872;9.220;2023-07-28T01:12:29;3.37;;;2.70;;
31438;SDS011;18062;48.872;9.220;2023-07-28T01:14:55;4.57;;;2.70;;
31438;SDS011;18062;48.872;9.220;2023-07-28T01:17:21;2.50;;;2.30;;
31438;SDS011;18062;48.872;9.220;2023-07-28T01:19:49;3.10;;;2.80;;
31438;SDS011;18062;48.872;9.220;2023-07-28T01:25:28;3.83;;;3.00;;
31438;SDS011;18062;48.872;9.220;2023-07-28T01:27:30;2.33;;;2.13;;
31438;SDS011;18062;48.872;9.220;2023-07-28T01:29:56;2.40;;;2.20;;
31438;SDS011;18062;48.872;9.220;2023-07-28T01:32:22;4.07;;;2.90;;
31438;SDS011;18062;48.872;9.220;2023-07-28T01:34:48;3.23;;;2.50;;
31438;SDS011;18062;48.872;9.220;2023-07-28T01:37:14;3.00;;;2.67;;
31438;SDS011;18062;48.872;9.220;2023-07-28T01:39:40;2.80;;;2.37;;
31438;SDS011;18062;48.872;9.220;2023-07-28T01:42:06;3.03;;;2.40;;
31438;SDS011;18062;48.872;9.220;2023-07-28T01:44:32;2.50;;;2.30;;
31438;SDS011;18062;48.872;9.220;2023-07-28T01:46:58;2.37;;;1.90;;
31438;SDS011;18062;48.872;9.220;2023-07-28T01:49:24;3.10;;;2.63;;
31438;SDS011;18062;48.872;9.220;2023-07-28T01:51:50;2.90;;;2.40;;
31438;SDS011;18062;48.872;9.220;2023-07-28T01:54:16;2.33;;;2.13;;
31438;SDS011;18062;48.872;9.220;2023-07-28T01:56:42;2.60;;;2.30;;
31438;SDS011;18062;48.872;9.220;2023-07-28T01:59:08;2.50;;;2.30;;
31438;SDS011;18062;48.872;9.220;2023-07-28T02:01:34;3.00;;;2.40;;
31438;SDS011;18062;48.872;9.220;2023-07-28T02:04:00;2.20;;;2.00;;
31438;SDS011;18062;48.872;9.220;2023-07-28T02:06:26;2.40;;;2.20;;
31438;SDS011;18062;48.872;9.220;2023-07-28T02:08:52;2.80;;;2.50;;
31438;SDS011;18062;48.872;9.220;2023-07-28T02:11:18;3.43;;;2.30;;
31438;SDS011;18062;48.872;9.220;2023-07-28T02:13:44;2.93;;;2.40;;
31438;SDS011;18062;48.872;9.220;2023-07-28T02:16:10;3.20;;;2.53;;
31438;SDS011;18062;48.872;9.220;2023-07-28T02:18:36;2.57;;;2.37;;
31438;SDS011;18062;48.872;9.220;2023-07-28T02:21:02;2.53;;;2.33;;
31438;SDS011;18062;48.872;9.220;2023-07-28T02:23:28;3.07;;;2.30;;
31438;SDS011;18062;48.872;9.220;2023-07-28T02:25:55;3.17;;;2.53;;
31438;SDS011;18062;48.872;9.220;2023-07-28T02:28:21;2.80;;;2.50;;
31438;SDS011;18062;48.872;9.220;2023-07-28T02:30:47;2.77;;;2.27;;
31438;SDS011;18062;48.872;9.220;2023-07-28T02:33:13;2.60;;;2.40;;
31438;SDS011;18062;48.872;9.220;2023-07-28T02:35:39;2.60;;;2.40;;
31438;SDS011;18062;48.872;9.220;2023-07-28T02:38:05;2.87;;;2.67;;
31438;SDS011;18062;48.872;9.220;2023-07-28T02:40:31;2.67;;;2.33;;
31438;SDS011;18062;48.872;9.220;2023-07-28T02:42:58;3.27;;;2.70;;
31438;SDS011;18062;48.872;9.220;2023-07-28T02:45:24;3.40;;;2.90;;
31438;SDS011;18062;48.872;9.220;2023-07-28T02:47:50;3.13;;;2.83;;
31438;SDS011;18062;48.872;9.220;2023-07-28T02:50:16;3.17;;;2.87;;
31438;SDS011;18062;48.872;9.220;2023-07-28T02:52:42;3.17;;;2.70;;
31438;SDS011;18062;48.872;9.220;2023-07-28T02:55:08;2.93;;;2.53;;
31438;SDS011;18062;48.872;9.220;2023-07-28T02:57:34;2.90;;;2.60;;
31438;SDS011;18062;48.872;9.220;2023-07-28T03:00:00;2.90;;;2.60;;
31438;SDS011;18062;48.872;9.220;2023-07-28T03:02:28;2.47;;;2.17;;
31438;SDS011;18062;48.872;9.220;2023-07-28T03:04:54;3.27;;;2.23;;
31438;SDS011;18062;48.872;9.220;2023-07-28T03:07:20;2.73;;;2.47;;
31438;SDS011;18062;48.872;9.220;2023-07-28T03:09:46;3.27;;;2.43;;
31438;SDS011;18062;48.872;9.220;2023-07-28T03:12:12;2.70;;;2.27;;
31438;SDS011;18062;48.872;9.220;2023-07-28T03:14:38;2.80;;;2.47;;
31438;SDS011;18062;48.872;9.220;2023-07-28T03:17:04;3.10;;;2.80;;
31438;SDS011;18062;48.872;9.220;2023-07-28T03:19:30;2.73;;;2.50;;
31438;SDS011;18062;48.872;9.220;2023-07-28T03:21:56;2.43;;;2.23;;
31438;SDS011;18062;48.872;9.220;2023-07-28T03:24:22;2.60;;;2.30;;
31438;SDS011;18062;48.872;9.220;2023-07-28T03:26:48;5.90;;;2.63;;
31438;SDS011;18062;48.872;9.220;2023-07-28T03:29:14;2.80;;;2.50;;
31438;SDS011;18062;48.872;9.220;2023-07-28T03:31:39;3.03;;;2.80;;
31438;SDS011;18062;48.872;9.220;2023-07-28T03:34:05;3.43;;;2.40;;
31438;SDS011;18062;48.872;9.220;2023-07-28T03:36:31;2.70;;;2.50;;
31438;SDS011;18062;48.872;9.220;2023-07-28T03:38:57;3.53;;;2.50;;
31438;SDS011;18062;48.872;9.220;2023-07-28T03:41:23;2.57;;;2.13;;
31438;SDS011;18062;48.872;9.220;2023-07-28T03:43:49;3.63;;;2.33;;
31438;SDS011;18062;48.872;9.220;2023-07-28T03:46:15;3.10;;;2.80;;
31438;SDS011;18062;48.872;9.220;2023-07-28T03:48:41;3.90;;;2.50;;
31438;SDS011;18062;48.872;9.220;2023-07-28T03:51:07;2.63;;;2.40;;
31438;SDS011;18062;48.872;9.220;2023-07-28T03:53:33;3.10;;;2.60;;
31438;SDS011;18062;48.872;9.220;2023-07-28T03:56:00;3.00;;;2.57;;
31438;SDS011;18062;48.872;9.220;2023-07-28T03:58:26;2.33;;;2.13;;
31438;SDS011;18062;48.872;9.220;2023-07-28T04:00:52;2.10;;;1.90;;
31438;SDS011;18062;48.872;9.220;2023-07-28T04:03:19;2.67;;;2.47;;
31438;SDS011;18062;48.872;9.220;2023-07-28T04:05:45;2.70;;;2.50;;
31438;SDS011;18062;48.872;9.220;2023-07-28T04:08:11;2.60;;;2.40;;
31438;SDS011;18062;48.872;9.220;2023-07-28T04:10:37;2.80;;;2.40;;
31438;SDS011;18062;48.872;9.220;2023-07-28T04:13:03;2.40;;;2.20;;
31438;SDS011;18062;48.872;9.220;2023-07-28T04:15:29;2.57;;;2.37;;
31438;SDS011;18062;48.872;9.220;2023-07-28T04:17:55;4.33;;;2.50;;
31438;SDS011;18062;48.872;9.220;2023-07-28T04:20:21;3.07;;;2.47;;
31438;SDS011;18062;48.872;9.220;2023-07-28T04:22:47;3.77;;;2.70;;
31438;SDS011;18062;48.872;9.220;2023-07-28T04:25:13;2.53;;;2.30;;
31438;SDS011;18062;48.872;9.220;2023-07-28T04:27:39;2.50;;;2.30;;
31438;SDS011;18062;48.872;9.220;2023-07-28T04:30:05;3.00;;;2.50;;
31438;SDS011;18062;48.872;9.220;2023-07-28T04:32:31;2.40;;;2.20;;
31438;SDS011;18062;48.872;9.220;2023-07-28T04:34:57;2.50;;;2.30;;
31438;SDS011;18062;48.872;9.220;2023-07-28T04:37:23;3.00;;;2.53;;
31438;SDS011;18062;48.872;9.220;2023-07-28T04:39:49;3.10;;;2.30;;
31438;SDS011;18062;48.872;9.220;2023-07-28T04:42:15;3.03;;;2.67;;
31438;SDS011;18062;48.872;9.220;2023-07-28T04:44:41;3.07;;;2.03;;
31438;SDS011;18062;48.872;9.220;2023-07-28T04:47:07;2.70;;;2.47;;
31438;SDS011;18062;48.872;9.220;2023-07-28T04:49:33;3.80;;;2.80;;
31438;SDS011;18062;48.872;9.220;2023-07-28T04:51:59;4.33;;;2.50;;
31438;SDS011;18062;48.872;9.220;2023-07-28T04:54:25;2.40;;;2.20;;
31438;SDS011;18062;48.872;9.220;2023-07-28T04:56:51;3.70;;;2.33;;
31438;SDS011;18062;48.872;9.220;2023-07-28T04:59:18;2.90;;;2.60;;
31438;SDS011;18062;48.872;9.220;2023-07-28T05:01:44;2.93;;;2.63;;
31438;SDS011;18062;48.872;9.220;2023-07-28T05:04:10;3.10;;;2.57;;
31438;SDS011;18062;48.872;9.220;2023-07-28T05:06:36;3.60;;;2.77;;
31438;SDS011;18062;48.872;9.220;2023-07-28T05:09:02;2.83;;;2.53;;
31438;SDS011;18062;48.872;9.220;2023-07-28T05:11:28;3.07;;;2.53;;
31438;SDS011;18062;48.872;9.220;2023-07-28T05:13:54;3.10;;;2.80;;
31438;SDS011;18062;48.872;9.220;2023-07-28T05:16:20;4.73;;;2.90;;
31438;SDS011;18062;48.872;9.220;2023-07-28T05:18:46;3.37;;;2.70;;
31438;SDS011;18062;48.872;9.220;2023-07-28T05:21:12;2.50;;;2.30;;
31438;SDS011;18062;48.872;9.220;2023-07-28T05:23:38;4.80;;;3.10;;
31438;SDS011;18062;48.872;9.220;2023-07-28T05:26:04;2.50;;;2.30;;
31438;SDS011;18062;48.872;9.220;2023-07-28T05:28:33;3.00;;;2.30;;
31438;SDS011;18062;48.872;9.220;2023-07-28T05:31:03;2.87;;;2.63;;
31438;SDS011;18062;48.872;9.220;2023-07-28T05:33:29;3.00;;;2.70;;
31438;SDS011;18062;48.872;9.220;2023-07-28T05:36:04;3.07;;;2.77;;
31438;SDS011;18062;48.872;9.220;2023-07-28T05:38:30;3.40;;;2.43;;
31438;SDS011;18062;48.872;9.220;2023-07-28T05:41:00;5.47;;;3.30;;
31438;SDS011;18062;48.872;9.220;2023-07-28T05:43:31;5.07;;;3.23;;
31438;SDS011;18062;48.872;9.220;2023-07-28T05:46:00;5.67;;;3.63;;
31438;SDS011;18062;48.872;9.220;2023-07-28T05:48:26;3.77;;;3.33;;
31438;SDS011;18062;48.872;9.220;2023-07-28T05:50:52;4.20;;;3.30;;
31438;SDS011;18062;48.872;9.220;2023-07-28T05:53:20;3.20;;;2.90;;
31438;SDS011;18062;48.872;9.220;2023-07-28T05:55:46;3.50;;;3.13;;
31438;SDS011;18062;48.872;9.220;2023-07-28T05:58:13;3.17;;;2.80;;
31438;SDS011;18062;48.872;9.220;2023-07-28T06:00:39;3.00;;;2.70;;
31438;SDS011;18062;48.872;9.220;2023-07-28T06:03:06;5.00;;;3.13;;
31438;SDS011;18062;48.872;9.220;2023-07-28T06:05:32;4.00;;;2.90;;
31438;SDS011;18062;48.872;9.220;2023-07-28T06:07:58;3.60;;;3.30;;
31438;SDS011;18062;48.872;9.220;2023-07-28T06:10:24;4.70;;;3.50;;
31438;SDS011;18062;48.872;9.220;2023-07-28T06:12:50;4.80;;;3.40;;
31438;SDS011;18062;48.872;9.220;2023-07-28T06:15:16;4.07;;;3.07;;
31438;SDS011;18062;48.872;9.220;2023-07-28T06:17:42;3.87;;;2.80;;
31438;SDS011;18062;48.872;9.220;2023-07-28T06:20:08;3.80;;;3.27;;
31438;SDS011;18062;48.872;9.220;2023-07-28T06:22:37;4.43;;;3.30;;
31438;SDS011;18062;48.872;9.220;2023-07-28T06:25:04;3.43;;;3.10;;
31438;SDS011;18062;48.872;9.220;2023-07-28T06:27:30;3.13;;;2.83;;
31438;SDS011;18062;48.872;9.220;2023-07-28T06:29:56;3.20;;;2.90;;
31438;SDS011;18062;48.872;9.220;2023-07-28T06:32:22;3.47;;;3.00;;
31438;SDS011;18062;48.872;9.220;2023-07-28T06:34:52;3.83;;;3.30;;
31438;SDS011;18062;48.872;9.220;2023-07-28T06:37:18;3.90;;;3.40;;
31438;SDS011;18062;48.872;9.220;2023-07-28T06:39:45;3.57;;;2.63;;
31438;SDS011;18062;48.872;9.220;2023-07-28T06:42:11;4.10;;;3.60;;
31438;SDS011;18062;48.872;9.220;2023-07-28T06:44:37;3.67;;;3.30;;
31438;SDS011;18062;48.872;9.220;2023-07-28T06:47:03;3.27;;;2.97;;
31438;SDS011;18062;48.872;9.220;2023-07-28T06:49:29;5.00;;;3.57;;
31438;SDS011;18062;48.872;9.220;2023-07-28T06:51:55;4.30;;;3.33;;
31438;SDS011;18062;48.872;9.220;2023-07-28T06:54:21;3.33;;;3.03;;
31438;SDS011;18062;48.872;9.220;2023-07-28T06:56:47;4.73;;;3.70;;
31438;SDS011;18062;48.872;9.220;2023-07-28T06:59:13;4.63;;;4.23;;
31438;SDS011;18062;48.872;9.220;2023-07-28T07:01:39;4.00;;;3.60;;
31438;SDS011;18062;48.872;9.220;2023-07-28T07:04:05;3.70;;;3.20;;
31438;SDS011;18062;48.872;9.220;2023-07-28T07:06:31;4.27;;;3.80;;
31438;SDS011;18062;48.872;9.220;2023-07-28T07:09:00;4.10;;;3.57;;
31438;SDS011;18062;48.872;9.220;2023-07-28T07:11:26;4.90;;;3.97;;
31438;SDS011;18062;48.872;9.220;2023-07-28T07:13:52;6.60;;;4.53;;
31438;SDS011;18062;48.872;9.220;2023-07-28T07:16:18;6.03;;;5.10;;
31438;SDS011;18062;48.872;9.220;2023-07-28T07:18:44;5.50;;;4.00;;
31438;SDS011;18062;48.872;9.220;2023-07-28T07:21:10;5.77;;;4.50;;
31438;SDS011;18062;48.872;9.220;2023-07-28T07:23:36;6.93;;;4.60;;
31438;SDS011;18062;48.872;9.220;2023-07-28T07:26:03;6.07;;;5.03;;
31438;SDS011;18062;48.872;9.220;2023-07-28T07:28:29;5.20;;;4.37;;
31438;SDS011;18062;48.872;9.220;2023-07-28T07:30:55;4.97;;;4.33;;
31438;SDS011;18062;48.872;9.220;2023-07-28T07:33:21;5.13;;;4.20;;
31438;SDS011;18062;48.872;9.220;2023-07-28T07:35:47;6.13;;;4.00;;
31438;SDS011;18062;48.872;9.220;2023-07-28T07:38:13;4.43;;;3.90;;
31438;SDS011;18062;48.872;9.220;2023-07-28T07:40:39;6.13;;;4.40;;
31438;SDS011;18062;48.872;9.220;2023-07-28T07:43:05;5.70;;;4.83;;
31438;SDS011;18062;48.872;9.220;2023-07-28T07:45:31;6.87;;;4.87;;
31438;SDS011;18062;48.872;9.220;2023-07-28T07:48:00;6.47;;;5.20;;
31438;SDS011;18062;48.872;9.220;2023-07-28T07:50:26;5.03;;;3.93;;
31438;SDS011;18062;48.872;9.220;2023-07-28T07:52:52;6.00;;;4.13;;
31438;SDS011;18062;48.872;9.220;2023-07-28T07:55:18;5.27;;;3.67;;
31438;SDS011;18062;48.872;9.220;2023-07-28T07:57:44;3.90;;;3.50;;
31438;SDS011;18062;48.872;9.220;2023-07-28T08:00:10;5.60;;;4.37;;
31438;SDS011;18062;48.872;9.220;2023-07-28T08:02:36;5.53;;;4.23;;
31438;SDS011;18062;48.872;9.220;2023-07-28T08:05:03;5.43;;;3.57;;
31438;SDS011;18062;48.872;9.220;2023-07-28T08:07:29;5.90;;;3.58;;
31438;SDS011;18062;48.872;9.220;2023-07-28T08:09:55;6.37;;;4.73;;
31438;SDS011;18062;48.872;9.220;2023-07-28T08:12:21;4.80;;;4.10;;
31438;SDS011;18062;48.872;9.220;2023-07-28T08:14:47;6.63;;;3.88;;
31438;SDS011;18062;48.872;9.220;2023-07-28T08:17:13;5.60;;;3.88;;
31438;SDS011;18062;48.872;9.220;2023-07-28T08:19:39;4.60;;;3.63;;
31438;SDS011;18062;48.872;9.220;2023-07-28T08:22:05;3.50;;;3.00;;
31438;SDS011;18062;48.872;9.220;2023-07-28T08:24:32;4.40;;;3.78;;
31438;SDS011;18062;48.872;9.220;2023-07-28T08:26:58;5.13;;;3.60;;
31438;SDS011;18062;48.872;9.220;2023-07-28T08:29:24;4.15;;;3.45;;
31438;SDS011;18062;48.872;9.220;2023-07-28T08:31:50;4.38;;;3.72;;
31438;SDS011;18062;48.872;9.220;2023-07-28T08:34:16;4.28;;;3.42;;
31438;SDS011;18062;48.872;9.220;2023-07-28T08:36:42;3.22;;;2.70;;
31438;SDS011;18062;48.872;9.220;2023-07-28T08:39:08;6.43;;;3.30;;
31438;SDS011;18062;48.872;9.220;2023-07-28T08:41:35;3.08;;;2.63;;
31438;SDS011;18062;48.872;9.220;2023-07-28T08:44:01;3.05;;;2.75;;
31438;SDS011;18062;48.872;9.220;2023-07-28T08:46:27;3.97;;;3.17;;
31438;SDS011;18062;48.872;9.220;2023-07-28T08:48:54;3.05;;;2.75;;
31438;SDS011;18062;48.872;9.220;2023-07-28T08:51:22;2.65;;;2.35;;
31438;SDS011;18062;48.872;9.220;2023-07-28T08:53:48;2.80;;;2.40;;
31438;SDS011;18062;48.872;9.220;2023-07-28T08:56:14;3.90;;;2.40;;
31438;SDS011;18062;48.872;9.220;2023-07-28T08:58:40;2.85;;;2.20;;
31438;SDS011;18062;48.872;9.220;2023-07-28T09:01:06;2.88;;;2.30;;
31438;SDS011;18062;48.872;9.220;2023-07-28T09:03:32;3.10;;;2.30;;
31438;SDS011;18062;48.872;9.220;2023-07-28T09:06:08;2.92;;;2.63;;
31438;SDS011;18062;48.872;9.220;2023-07-28T09:08:35;3.85;;;2.80;;
31438;SDS011;18062;48.872;9.220;2023-07-28T09:11:02;3.20;;;2.70;;
31438;SDS011;18062;48.872;9.220;2023-07-28T09:13:35;2.20;;;2.00;;
31438;SDS011;18062;48.872;9.220;2023-07-28T09:16:01;4.20;;;2.28;;
31438;SDS011;18062;48.872;9.220;2023-07-28T09:18:27;1.58;;;1.35;;
31438;SDS011;18062;48.872;9.220;2023-07-28T09:20:54;1.58;;;1.30;;
31438;SDS011;18062;48.872;9.220;2023-07-28T09:23:27;2.30;;;1.92;;
31438;SDS011;18062;48.872;9.220;2023-07-28T09:25:58;2.75;;;2.20;;
31438;SDS011;18062;48.872;9.220;2023-07-28T09:28:35;4.32;;;3.60;;
31438;SDS011;18062;48.872;9.220;2023-07-28T09:31:03;2.42;;;1.98;;
31438;SDS011;18062;48.872;9.220;2023-07-28T09:33:30;1.50;;;1.40;;
31438;SDS011;18062;48.872;9.220;2023-07-28T09:35:56;5.88;;;4.53;;
31438;SDS011;18062;48.872;9.220;2023-07-28T09:38:22;1.80;;;1.60;;
31438;SDS011;18062;48.872;9.220;2023-07-28T09:40:50;1.50;;;1.40;;
31438;SDS011;18062;48.872;9.220;2023-07-28T09:43:16;1.55;;;1.35;;
31438;SDS011;18062;48.872;9.220;2023-07-28T09:45:42;1.42;;;1.33;;
31438;SDS011;18062;48.872;9.220;2023-07-28T09:48:09;1.30;;;1.17;;
31438;SDS011;18062;48.872;9.220;2023-07-28T09:50:37;1.42;;;1.33;;
31438;SDS011;18062;48.872;9.220;2023-07-28T09:53:03;1.40;;;1.30;;
31438;SDS011;18062;48.872;9.220;2023-07-28T09:55:29;1.35;;;1.25;;
31438;SDS011;18062;48.872;9.220;2023-07-28T09:57:57;1.05;;;1.02;;
31438;SDS011;18062;48.872;9.220;2023-07-28T10:00:24;1.60;;;1.40;;
31438;SDS011;18062;48.872;9.220;2023-07-28T10:02:51;1.30;;;1.20;;
31438;SDS011;18062;48.872;9.220;2023-07-28T10:05:18;2.88;;;1.50;;
31438;SDS011;18062;48.872;9.220;2023-07-28T10:07:45;1.77;;;1.52;;
31438;SDS011;18062;48.872;9.220;2023-07-28T10:10:13;2.17;;;1.42;;
31438;SDS011;18062;48.872;9.220;2023-07-28T10:12:40;2.42;;;1.30;;
31438;SDS011;18062;48.872;9.220;2023-07-28T10:15:11;1.77;;;1.48;;
31438;SDS011;18062;48.872;9.220;2023-07-28T10:17:40;2.95;;;1.30;;
31438;SDS011;18062;48.872;9.220;2023-07-28T10:23:01;2.55;;;1.33;;
31438;SDS011;18062;48.872;9.220;2023-07-28T10:25:27;1.40;;;1.30;;
31438;SDS011;18062;48.872;9.220;2023-07-28T10:27:53;1.27;;;1.17;;
31438;SDS011;18062;48.872;9.220;2023-07-28T10:30:19;1.30;;;1.15;;
31438;SDS011;18062;48.872;9.220;2023-07-28T10:32:48;1.20;;;1.10;;
31438;SDS011;18062;48.872;9.220;2023-07-28T10:37:46;1.88;;;1.30;;
31438;SDS011;18062;48.872;9.220;2023-07-28T10:42:55;2.38;;;1.67;;
31438;SDS011;18062;48.872;9.220;2023-07-28T10:45:25;1.50;;;1.40;;
31438;SDS011;18062;48.872;9.220;2023-07-28T10:47:52;3.63;;;1.60;;
31438;SDS011;18062;48.872;9.220;2023-07-28T10:50:20;1.77;;;1.67;;
31438;SDS011;18062;48.872;9.220;2023-07-28T10:52:46;1.50;;;1.35;;
31438;SDS011;18062;48.872;9.220;2023-07-28T10:55:20;2.15;;;1.70;;
31438;SDS011;18062;48.872;9.220;2023-07-28T10:57:47;1.65;;;1.50;;
31438;SDS011;18062;48.872;9.220;2023-07-28T11:00:14;1.50;;;1.40;;
31438;SDS011;18062;48.872;9.220;2023-07-28T11:02:53;1.60;;;1.50;;
31438;SDS011;18062;48.872;9.220;2023-07-28T11:05:21;2.05;;;1.58;;
31438;SDS011;18062;48.872;9.220;2023-07-28T11:07:47;2.05;;;1.92;;
31438;SDS011;18062;48.872;9.220;2023-07-28T11:10:14;4.20;;;3.80;;
31438;SDS011;18062;48.872;9.220;2023-07-28T11:12:42;1.77;;;1.65;;
31438;SDS011;18062;48.872;9.220;2023-07-28T11:15:08;2.40;;;1.80;;
31438;SDS011;18062;48.872;9.220;2023-07-28T11:17:41;1.73;;;1.58;;
31438;SDS011;18062;48.872;9.220;2023-07-28T11:22:44;2.10;;;1.90;;
31438;SDS011;18062;48.872;9.220;2023-07-28T11:25:10;1.50;;;1.40;;
31438;SDS011;18062;48.872;9.220;2023-07-28T11:27:37;1.73;;;1.63;;
31438;SDS011;18062;48.872;9.220;2023-07-28T11:30:03;1.70;;;1.60;;
31438;SDS011;18062;48.872;9.220;2023-07-28T11:32:30;1.17;;;1.08;;
31438;SDS011;18062;48.872;9.220;2023-07-28T11:35:06;1.58;;;1.40;;
31438;SDS011;18062;48.872;9.220;2023-07-28T11:37:33;1.30;;;1.20;;
31438;SDS011;18062;48.872;9.220;2023-07-28T11:40:00;1.25;;;1.15;;
31438;SDS011;18062;48.872;9.220;2023-07-28T11:42:27;1.35;;;1.17;;
31438;SDS011;18062;48.872;9.220;2023-07-28T11:44:54;1.23;;;1.10;;
31438;SDS011;18062;48.872;9.220;2023-07-28T11:47:21;1.23;;;1.13;;
31438;SDS011;18062;48.872;9.220;2023-07-28T11:49:47;1.42;;;1.00;;
31438;SDS011;18062;48.872;9.220;2023-07-28T11:52:14;1.15;;;1.05;;
31438;SDS011;18062;48.872;9.220;2023-07-28T11:54:41;0.90;;;0.90;;
31438;SDS011;18062;48.872;9.220;2023-07-28T11:57:07;0.90;;;0.90;;
31438;SDS011;18062;48.872;9.220;2023-07-28T11:59:34;1.55;;;1.27;;
31438;SDS011;18062;48.872;9.220;2023-07-28T12:02:04;1.48;;;1.20;;
31438;SDS011;18062;48.872;9.220;2023-07-28T12:04:37;1.05;;;1.00;;
31438;SDS011;18062;48.872;9.220;2023-07-28T12:07:07;1.15;;;1.10;;
31438;SDS011;18062;48.872;9.220;2023-07-28T12:09:54;1.60;;;1.50;;
31438;SDS011;18062;48.872;9.220;2023-07-28T12:12:25;1.38;;;1.20;;
31438;SDS011;18062;48.872;9.220;2023-07-28T12:14:52;1.65;;;1.13;;
31438;SDS011;18062;48.872;9.220;2023-07-28T12:17:19;1.17;;;1.08;;
31438;SDS011;18062;48.872;9.220;2023-07-28T12:22:39;1.85;;;1.25;;
31438;SDS011;18062;48.872;9.220;2023-07-28T12:25:05;2.45;;;1.10;;
31438;SDS011;18062;48.872;9.220;2023-07-28T12:27:32;1.40;;;1.30;;
31438;SDS011;18062;48.872;9.220;2023-07-28T12:29:58;1.42;;;1.33;;
31438;SDS011;18062;48.872;9.220;2023-07-28T12:32:24;1.10;;;1.00;;
31438;SDS011;18062;48.872;9.220;2023-07-28T12:34:50;1.85;;;1.20;;
31438;SDS011;18062;48.872;9.220;2023-07-28T12:37:17;1.40;;;1.30;;
31438;SDS011;18062;48.872;9.220;2023-07-28T12:39:43;1.45;;;1.35;;
31438;SDS011;18062;48.872;9.220;2023-07-28T12:42:09;3.05;;;1.40;;
31438;SDS011;18062;48.872;9.220;2023-07-28T12:44:36;1.40;;;1.30;;
31438;SDS011;18062;48.872;9.220;2023-07-28T12:47:03;1.77;;;1.30;;
31438;SDS011;18062;48.872;9.220;2023-07-28T12:49:29;1.60;;;1.50;;
31438;SDS011;18062;48.872;9.220;2023-07-28T12:51:58;1.50;;;1.40;;
31438;SDS011;18062;48.872;9.220;2023-07-28T12:54:25;2.05;;;1.40;;
31438;SDS011;18062;48.872;9.220;2023-07-28T12:56:51;1.50;;;1.40;;
31438;SDS011;18062;48.872;9.220;2023-07-28T12:59:17;1.70;;;1.48;;
31438;SDS011;18062;48.872;9.220;2023-07-28T13:01:44;1.88;;;1.67;;
31438;SDS011;18062;48.872;9.220;2023-07-28T13:04:10;1.65;;;1.42;;
31438;SDS011;18062;48.872;9.220;2023-07-28T13:06:36;1.92;;;1.60;;
31438;SDS011;18062;48.872;9.220;2023-07-28T13:09:02;1.85;;;1.60;;
31438;SDS011;18062;48.872;9.220;2023-07-28T13:11:29;1.75;;;1.52;;
31438;SDS011;18062;48.872;9.220;2023-07-28T13:13:55;1.65;;;1.50;;
31438;SDS011;18062;48.872;9.220;2023-07-28T13:16:21;1.40;;;1.30;;
31438;SDS011;18062;48.872;9.220;2023-07-28T13:18:47;1.70;;;1.60;;
31438;SDS011;18062;48.872;9.220;2023-07-28T13:21:13;1.75;;;1.52;;
31438;SDS011;18062;48.872;9.220;2023-07-28T13:23:39;1.95;;;1.70;;
31438;SDS011;18062;48.872;9.220;2023-07-28T13:26:05;2.40;;;2.00;;
31438;SDS011;18062;48.872;9.220;2023-07-28T13:28:32;2.42;;;1.75;;
31438;SDS011;18062;48.872;9.220;2023-07-28T13:31:00;2.00;;;1.80;;
31438;SDS011;18062;48.872;9.220;2023-07-28T13:33:27;4.43;;;1.63;;
31438;SDS011;18062;48.872;9.220;2023-07-28T13:35:53;1.85;;;1.58;;
31438;SDS011;18062;48.872;9.220;2023-07-28T13:38:19;3.05;;;1.83;;
31438;SDS011;18062;48.872;9.220;2023-07-28T13:40:45;2.00;;;1.80;;
31438;SDS011;18062;48.872;9.220;2023-07-28T13:43:11;2.27;;;1.83;;
31438;SDS011;18062;48.872;9.220;2023-07-28T13:45:37;2.50;;;2.10;;
31438;SDS011;18062;48.872;9.220;2023-07-28T13:48:03;2.50;;;1.90;;
31438;SDS011;18062;48.872;9.220;2023-07-28T13:50:29;1.80;;;1.70;;
31438;SDS011;18062;48.872;9.220;2023-07-28T13:52:55;1.73;;;1.50;;
31438;SDS011;18062;48.872;9.220;2023-07-28T13:55:21;4.13;;;2.20;;
31438;SDS011;18062;48.872;9.220;2023-07-28T13:57:48;2.10;;;1.90;;
31438;SDS011;18062;48.872;9.220;2023-07-28T14:00:14;1.70;;;1.60;;
31438;SDS011;18062;48.872;9.220;2023-07-28T14:02:40;2.20;;;2.00;;
31438;SDS011;18062;48.872;9.220;2023-07-28T14:05:06;3.30;;;2.13;;
31438;SDS011;18062;48.872;9.220;2023-07-28T14:07:33;3.83;;;2.37;;
31438;SDS011;18062;48.872;9.220;2023-07-28T14:09:59;2.80;;;2.03;;
31438;SDS011;18062;48.872;9.220;2023-07-28T14:12:25;2.10;;;1.80;;
31438;SDS011;18062;48.872;9.220;2023-07-28T14:14:51;3.47;;;2.20;;
31438;SDS011;18062;48.872;9.220;2023-07-28T14:17:17;3.23;;;2.03;;
31438;SDS011;18062;48.872;9.220;2023-07-28T14:19:43;2.67;;;2.17;;
31438;SDS011;18062;48.872;9.220;2023-07-28T14:22:09;4.10;;;2.40;;
31438;SDS011;18062;48.872;9.220;2023-07-28T14:24:35;2.97;;;2.13;;
31438;SDS011;18062;48.872;9.220;2023-07-28T14:27:01;3.13;;;2.73;;
31438;SDS011;18062;48.872;9.220;2023-07-28T14:29:28;2.30;;;2.10;;
31438;SDS011;18062;48.872;9.220;2023-07-28T14:31:54;2.77;;;2.30;;
31438;SDS011;18062;48.872;9.220;2023-07-28T14:34:20;2.37;;;2.13;;
31438;SDS011;18062;48.872;9.220;2023-07-28T14:36:46;3.17;;;2.17;;
31438;SDS011;18062;48.872;9.220;2023-07-28T14:39:12;4.10;;;2.90;;
31438;SDS011;18062;48.872;9.220;2023-07-28T14:41:38;2.90;;;2.20;;
31438;SDS011;18062;48.872;9.220;2023-07-28T14:44:04;3.40;;;2.50;;
31438;SDS011;18062;48.872;9.220;2023-07-28T14:46:30;2.50;;;2.30;;
31438;SDS011;18062;48.872;9.220;2023-07-28T14:48:56;2.83;;;2.53;;
31438;SDS011;18062;48.872;9.220;2023-07-28T14:51:22;3.30;;;2.60;;
31438;SDS011;18062;48.872;9.220;2023-07-28T14:53:48;2.47;;;2.27;;
31438;SDS011;18062;48.872;9.220;2023-07-28T14:56:14;2.90;;;2.60;;
31438;SDS011;18062;48.872;9.220;2023-07-28T14:58:41;3.97;;;2.60;;
31438;SDS011;18062;48.872;9.220;2023-07-28T15:01:07;2.50;;;2.30;;
31438;SDS011;18062;48.872;9.220;2023-07-28T15:03:33;3.00;;;2.43;;